Deborah — WDJ6807 — position and weather

sailwx.info

Track history (hours):
 
Tides and Currents Weather Stations Pressure Air Temp Water Temp Dewpoint Dewpoint Depression Visibility Wind Speed Wind Dir Waves Ship Positions

Deborah

Owner: Manson Construction Co., Seattle, WA. More information available from US FCC via Universal Licensing System and Coast Guard Vessel Documentation Center.

Last reported at 2018-Feb-21 17:30 UTC. Time now 2018-Feb-21 17:32 UTC.
Position N 34°40' W 076°40'.

Length 12 m.

Type: Pleasure craft. MMSI: 368000410.

Date/timePositionNaut miles runAvg speedWind from/ knotsBaromVisibWave heightAir tempDewpointWater temp
2018-Feb-21 17:30N 34°40' W 076°40'0 0.4
2018-Feb-21 16:59N 34°40' W 076°40'2 4.2
2018-Feb-21 16:30N 34°42' W 076°41'1 2.1
2018-Feb-21 15:59N 34°43' W 076°42'1 2.6
2018-Feb-21 15:30N 34°43' W 076°41'0 0.6
2018-Feb-21 14:59N 34°43' W 076°40'0 0.0
2018-Feb-21 14:29N 34°43' W 076°40'0 0.0
2018-Feb-21 13:59N 34°43' W 076°40'0 0.0
2018-Feb-21 13:29N 34°43' W 076°40'0 0.0
2018-Feb-21 12:59N 34°43' W 076°40'0 0.5
2018-Feb-21 12:30N 34°43' W 076°40'2 2.9
2018-Feb-21 11:59N 34°43' W 076°42'0 0.0
2018-Feb-21 11:30N 34°43' W 076°42'0 0.0
2018-Feb-21 11:00N 34°43' W 076°42'0 0.0
2018-Feb-21 10:30N 34°43' W 076°42'0 0.0
2018-Feb-21 10:00N 34°43' W 076°42'0 0.0
2018-Feb-21 09:30N 34°43' W 076°42'0 0.0
2018-Feb-21 09:00N 34°43' W 076°42'0 0.0
2018-Feb-21 08:30N 34°43' W 076°42'0 0.0
2018-Feb-21 08:00N 34°43' W 076°42'0 0.0
2018-Feb-21 07:30N 34°43' W 076°42'0 0.0
2018-Feb-21 07:00N 34°43' W 076°42'0 0.0
2018-Feb-21 06:30N 34°43' W 076°42'0 0.0
2018-Feb-21 06:00N 34°43' W 076°42'0 0.0
2018-Feb-21 05:30N 34°43' W 076°42'0 0.0
2018-Feb-21 05:00N 34°43' W 076°42'0 0.0
2018-Feb-21 04:30N 34°43' W 076°42'0 0.0
2018-Feb-21 04:00N 34°43' W 076°42'0 0.0
2018-Feb-21 03:30N 34°43' W 076°42'0 0.0
2018-Feb-21 02:57N 34°43' W 076°42'0 0.0
2018-Feb-21 02:30N 34°43' W 076°42'0 0.0
2018-Feb-21 02:00N 34°43' W 076°42'0 0.0
2018-Feb-21 01:30N 34°43' W 076°42'0 0.0
2018-Feb-21 01:00N 34°43' W 076°42'0 0.0
2018-Feb-21 00:30N 34°43' W 076°42'0 0.0
2018-Feb-21 00:00N 34°43' W 076°42'0 0.0
2018-Feb-20 23:30N 34°43' W 076°42'0 0.0
2018-Feb-20 23:00N 34°43' W 076°42'0 0.0
2018-Feb-20 22:30N 34°43' W 076°42'0 0.0
2018-Feb-20 22:00N 34°43' W 076°42'0 0.0
2018-Feb-20 21:30N 34°43' W 076°42'0 0.0
2018-Feb-20 21:00N 34°43' W 076°42'0 0.0
2018-Feb-20 20:30N 34°43' W 076°42'0 0.0
2018-Feb-20 19:57N 34°43' W 076°42'0 0.0
2018-Feb-20 19:30N 34°43' W 076°42'0 0.0
2018-Feb-20 19:00N 34°43' W 076°42'0 0.0
2018-Feb-20 18:30N 34°43' W 076°42'0 0.0
2018-Feb-20 18:00N 34°43' W 076°42'1 2.0
2018-Feb-20 17:30N 34°43' W 076°41'2 3.8
2018-Feb-20 17:00N 34°41' W 076°40'4 7.1
2018-Feb-20 16:30N 34°38' W 076°42'510.8
2018-Feb-20 16:00N 34°43' W 076°42'1 1.2
2018-Feb-20 15:30N 34°43' W 076°42'0 0.0
2018-Feb-20 14:55N 34°43' W 076°42'0 0.0
2018-Feb-20 14:28N 34°43' W 076°42'0 0.0
2018-Feb-20 13:58N 34°43' W 076°42'0 0.0
2018-Feb-20 13:28N 34°43' W 076°42'0 0.0
2018-Feb-20 12:58N 34°43' W 076°42'0 0.0
2018-Feb-20 12:28N 34°43' W 076°42'0 0.0
2018-Feb-20 11:58N 34°43' W 076°42'0 0.0
2018-Feb-20 11:28N 34°43' W 076°42'0 0.0
2018-Feb-20 10:58N 34°43' W 076°42'0 0.0
2018-Feb-20 10:28N 34°43' W 076°42'0 0.0
2018-Feb-20 09:55N 34°43' W 076°42'0 0.0
2018-Feb-20 09:28N 34°43' W 076°42'0 0.0
2018-Feb-20 08:58N 34°43' W 076°42'0 0.0
2018-Feb-20 08:28N 34°43' W 076°42'0 0.0
2018-Feb-20 07:58N 34°43' W 076°42'0 0.0
2018-Feb-20 07:28N 34°43' W 076°42'0 0.0
2018-Feb-20 06:58N 34°43' W 076°42'0 0.0
2018-Feb-20 06:28N 34°43' W 076°42'0 0.0
2018-Feb-20 05:58N 34°43' W 076°42'0 0.0
2018-Feb-20 05:28N 34°43' W 076°42'0 0.0
2018-Feb-20 04:58N 34°43' W 076°42'0 0.0
2018-Feb-20 04:28N 34°43' W 076°42'0 0.0
2018-Feb-20 03:58N 34°43' W 076°42'0 0.0
2018-Feb-20 03:28N 34°43' W 076°42'0 0.0
2018-Feb-20 02:58N 34°43' W 076°42'0 0.0
2018-Feb-20 02:28N 34°43' W 076°42'0 0.0
2018-Feb-20 01:58N 34°43' W 076°42'0 0.0
2018-Feb-20 01:28N 34°43' W 076°42'0 0.0
2018-Feb-20 00:58N 34°43' W 076°42'0 0.0
2018-Feb-20 00:28N 34°43' W 076°42'0 0.0
2018-Feb-19 23:58N 34°43' W 076°42'0 0.0
2018-Feb-19 23:28N 34°43' W 076°42'0 0.0
2018-Feb-19 22:58N 34°43' W 076°42'0 0.0
2018-Feb-19 22:28N 34°43' W 076°42'0 0.0
2018-Feb-19 21:58N 34°43' W 076°42'0 0.0
2018-Feb-19 21:19N 34°43' W 076°42'0 0.0
2018-Feb-19 20:58N 34°43' W 076°42'0 0.0
2018-Feb-19 20:28N 34°43' W 076°42'0 0.0
2018-Feb-19 19:58N 34°43' W 076°42'0 0.0
2018-Feb-19 19:28N 34°43' W 076°42'0 0.0
2018-Feb-19 18:58N 34°43' W 076°42'0 0.0
2018-Feb-19 18:28N 34°43' W 076°42'0 0.0
2018-Feb-19 17:58N 34°43' W 076°42'0 0.0
2018-Feb-19 17:28N 34°43' W 076°42'0 0.0
2018-Feb-19 16:58N 34°43' W 076°42'0 0.0
2018-Feb-19 16:28N 34°43' W 076°42'0 0.0
2018-Feb-19 15:58N 34°43' W 076°42'0 0.0
2018-Feb-19 15:28N 34°43' W 076°42'0 0.0
2018-Feb-19 14:58N 34°43' W 076°42'0 0.0
2018-Feb-19 14:28N 34°43' W 076°42'0 0.0
2018-Feb-19 13:58N 34°43' W 076°42'1 1.2
2018-Feb-19 13:30N 34°43' W 076°42'1 1.0
2018-Feb-19 12:58N 34°43' W 076°42'0 0.0
2018-Feb-19 12:28N 34°43' W 076°42'0 0.0
2018-Feb-19 11:58N 34°43' W 076°42'0 0.0
2018-Feb-19 11:28N 34°43' W 076°42'0 0.0
2018-Feb-19 10:58N 34°43' W 076°42'0 0.0
2018-Feb-19 10:28N 34°43' W 076°42'0 0.0
2018-Feb-19 09:58N 34°43' W 076°42'0 0.0
2018-Feb-19 09:28N 34°43' W 076°42'0 0.0
2018-Feb-19 08:58N 34°43' W 076°42'0 0.0
2018-Feb-19 08:22N 34°43' W 076°42'0 0.0
2018-Feb-19 07:58N 34°43' W 076°42'0 0.0
2018-Feb-19 07:28N 34°43' W 076°42'0 0.0
2018-Feb-19 06:58N 34°43' W 076°42'0 0.0
2018-Feb-19 06:28N 34°43' W 076°42'0 0.0
2018-Feb-19 05:58N 34°43' W 076°42'0 0.0
2018-Feb-19 05:28N 34°43' W 076°42'0 0.0
2018-Feb-19 04:58N 34°43' W 076°42'0 0.0
2018-Feb-19 04:28N 34°43' W 076°42'0 0.0
2018-Feb-19 03:58N 34°43' W 076°42'0 0.0
2018-Feb-19 03:28N 34°43' W 076°42'0 0.0
2018-Feb-19 02:58N 34°43' W 076°42'0 0.0
2018-Feb-19 02:28N 34°43' W 076°42'0 0.0
2018-Feb-19 01:58N 34°43' W 076°42'0 0.0
2018-Feb-19 01:28N 34°43' W 076°42'0 0.0
2018-Feb-19 00:58N 34°43' W 076°42'0 0.0
2018-Feb-19 00:28N 34°43' W 076°42'0 0.0
2018-Feb-18 23:58N 34°43' W 076°42'0 0.0
2018-Feb-18 23:28N 34°43' W 076°42'0 0.0
2018-Feb-18 22:58N 34°43' W 076°42'0 0.0
2018-Feb-18 22:28N 34°43' W 076°42'0 0.0
2018-Feb-18 21:58N 34°43' W 076°42'0 0.0
2018-Feb-18 21:28N 34°43' W 076°42'0 0.0
2018-Feb-18 20:58N 34°43' W 076°42'0 0.0
2018-Feb-18 20:28N 34°43' W 076°42'0 0.0
2018-Feb-18 19:55N 34°43' W 076°42'0 0.0
2018-Feb-18 19:28N 34°43' W 076°42'0 0.0
2018-Feb-18 18:58N 34°43' W 076°42'0 0.0
2018-Feb-18 18:28N 34°43' W 076°42'0 0.0
2018-Feb-18 17:58N 34°43' W 076°42'0 0.0
2018-Feb-18 17:28N 34°43' W 076°42'0 0.0
2018-Feb-18 16:58N 34°43' W 076°42'0 0.0
2018-Feb-18 16:28N 34°43' W 076°42'0 0.0
2018-Feb-18 15:58N 34°43' W 076°42'0 0.0
2018-Feb-18 15:28N 34°43' W 076°42'0 0.0
2018-Feb-18 14:58N 34°43' W 076°42'0 0.0
2018-Feb-18 14:28N 34°43' W 076°42'0 0.0
2018-Feb-18 13:58N 34°43' W 076°42'0 0.0
2018-Feb-18 13:28N 34°43' W 076°42'0 0.0
2018-Feb-18 12:58N 34°43' W 076°42'0 0.0
2018-Feb-18 12:28N 34°43' W 076°42'0 0.0
2018-Feb-18 11:58N 34°43' W 076°42'0 0.0
2018-Feb-18 11:28N 34°43' W 076°42'0 0.0
2018-Feb-18 10:58N 34°43' W 076°42'0 0.0
2018-Feb-18 10:28N 34°43' W 076°42'0 0.0
2018-Feb-18 09:58N 34°43' W 076°42'0 0.0
2018-Feb-18 09:28N 34°43' W 076°42'0 0.0
2018-Feb-18 08:58N 34°43' W 076°42'0 0.0
2018-Feb-18 08:28N 34°43' W 076°42'0 0.0
2018-Feb-18 07:58N 34°43' W 076°42'0 0.0
2018-Feb-18 07:28N 34°43' W 076°42'0 0.0
2018-Feb-18 06:58N 34°43' W 076°42'0 0.0
2018-Feb-18 06:28N 34°43' W 076°42'0 0.0
2018-Feb-18 05:58N 34°43' W 076°42'0 0.0
2018-Feb-18 05:28N 34°43' W 076°42'0 0.0
2018-Feb-18 04:58N 34°43' W 076°42'0 0.0
2018-Feb-18 04:28N 34°43' W 076°42'0 0.0
2018-Feb-18 03:58N 34°43' W 076°42'0 0.0
2018-Feb-18 03:28N 34°43' W 076°42'0 0.0
2018-Feb-18 02:58N 34°43' W 076°42'0 0.0
2018-Feb-18 02:28N 34°43' W 076°42'0 0.0
2018-Feb-18 01:58N 34°43' W 076°42'0 0.0
2018-Feb-18 01:28N 34°43' W 076°42'0 0.0
2018-Feb-18 00:58N 34°43' W 076°42'0 0.0
2018-Feb-18 00:28N 34°43' W 076°42'0 0.0
2018-Feb-17 23:58N 34°43' W 076°42'0 0.0
2018-Feb-17 23:28N 34°43' W 076°42'0 0.0
2018-Feb-17 22:58N 34°43' W 076°42'0 0.0
2018-Feb-17 22:28N 34°43' W 076°42'0 0.0
2018-Feb-17 21:58N 34°43' W 076°42'0 0.0
2018-Feb-17 21:28N 34°43' W 076°42'0 0.0
2018-Feb-17 20:58N 34°43' W 076°42'0 0.0
2018-Feb-17 20:28N 34°43' W 076°42'0 0.0
2018-Feb-17 19:58N 34°43' W 076°42'0 0.0
2018-Feb-17 19:28N 34°43' W 076°42'0 0.0
2018-Feb-17 18:58N 34°43' W 076°42'0 0.0
2018-Feb-17 18:28N 34°43' W 076°42'0 0.0
2018-Feb-17 17:58N 34°43' W 076°42'0 0.0
2018-Feb-17 17:28N 34°43' W 076°42'1 3.1
2018-Feb-17 17:00N 34°42' W 076°41'1 1.0
2018-Feb-17 16:30N 34°42' W 076°41'1 2.5
2018-Feb-17 16:00N 34°43' W 076°42'1 2.5
2018-Feb-17 15:30N 34°43' W 076°40'0 0.5
2018-Feb-17 15:00N 34°43' W 076°40'2 3.4
2018-Feb-17 14:30N 34°43' W 076°42'0 0.1
2018-Feb-17 14:00N 34°43' W 076°42'0 0.0
2018-Feb-17 13:30N 34°43' W 076°42'0 0.0
2018-Feb-17 13:00N 34°43' W 076°42'0 0.0
2018-Feb-17 12:30N 34°43' W 076°42'0 0.0
2018-Feb-17 12:00N 34°43' W 076°42'0 0.0
2018-Feb-17 11:30N 34°43' W 076°42'0 0.0
2018-Feb-17 11:00N 34°43' W 076°42'0 0.0
2018-Feb-17 10:30N 34°43' W 076°42'0 0.0
2018-Feb-17 10:00N 34°43' W 076°42'0 0.0
2018-Feb-17 09:30N 34°43' W 076°42'0 0.0
2018-Feb-17 09:00N 34°43' W 076°42'0 0.0
2018-Feb-17 08:30N 34°43' W 076°42'0 0.0
2018-Feb-17 08:00N 34°43' W 076°42'0 0.0
2018-Feb-17 07:30N 34°43' W 076°42'0 0.0
2018-Feb-17 07:00N 34°43' W 076°42'0 0.0
2018-Feb-17 06:30N 34°43' W 076°42'0 0.0
2018-Feb-17 06:00N 34°43' W 076°42'0 0.0
2018-Feb-17 05:30N 34°43' W 076°42'0 0.0
2018-Feb-17 05:00N 34°43' W 076°42'0 0.0
2018-Feb-17 04:30N 34°43' W 076°42'0 0.0
2018-Feb-17 04:00N 34°43' W 076°42'0 0.0
2018-Feb-17 03:30N 34°43' W 076°42'0 0.0
2018-Feb-17 03:00N 34°43' W 076°42'0 0.0
2018-Feb-17 02:30N 34°43' W 076°42'0 0.0
2018-Feb-17 02:00N 34°43' W 076°42'0 0.0
2018-Feb-17 01:30N 34°43' W 076°42'0 0.0
2018-Feb-17 01:00N 34°43' W 076°42'0 0.0
2018-Feb-17 00:30N 34°43' W 076°42'0 0.0
2018-Feb-17 00:00N 34°43' W 076°42'0 0.0
2018-Feb-16 23:30N 34°43' W 076°42'0 0.0
2018-Feb-16 23:00N 34°43' W 076°42'0 0.0
2018-Feb-16 22:30N 34°43' W 076°42'0 0.0
2018-Feb-16 22:00N 34°43' W 076°42'0 0.0
2018-Feb-16 21:30N 34°43' W 076°42'0 0.0
2018-Feb-16 21:00N 34°43' W 076°42'0 0.0
2018-Feb-16 20:30N 34°43' W 076°42'0 0.0
2018-Feb-16 20:00N 34°43' W 076°42'0 0.0
2018-Feb-16 19:30N 34°43' W 076°42'0 0.0
2018-Feb-16 19:00N 34°43' W 076°42'0 0.0
2018-Feb-16 18:30N 34°43' W 076°42'0 0.0
2018-Feb-16 18:00N 34°43' W 076°42'0 0.0
2018-Feb-16 17:30N 34°43' W 076°42'0 0.0
2018-Feb-16 17:00N 34°43' W 076°42'0 0.0
2018-Feb-16 16:24N 34°43' W 076°42'0 0.0
2018-Feb-16 16:00N 34°43' W 076°42'0 0.0
2018-Feb-16 15:30N 34°43' W 076°42'0 0.0
2018-Feb-16 15:00N 34°43' W 076°42'0 0.0
2018-Feb-16 14:30N 34°43' W 076°42'0 0.0
2018-Feb-16 14:00N 34°43' W 076°42'0 0.0
2018-Feb-16 13:30N 34°43' W 076°42'1 1.6
2018-Feb-16 13:00N 34°44' W 076°42'5 8.8
2018-Feb-16 12:28N 34°48' W 076°41'0 0.0
2018-Feb-16 11:58N 34°48' W 076°41'0 0.0
2018-Feb-16 11:28N 34°48' W 076°41'0 0.0
2018-Feb-16 10:58N 34°48' W 076°41'0 0.0
2018-Feb-16 10:28N 34°48' W 076°41'0 0.0
2018-Feb-16 09:58N 34°48' W 076°41'0 0.0
2018-Feb-16 09:28N 34°48' W 076°41'0 0.0
2018-Feb-16 08:58N 34°48' W 076°41'0 0.0
2018-Feb-16 08:28N 34°48' W 076°41'0 0.0
2018-Feb-16 07:58N 34°48' W 076°41'0 0.0
2018-Feb-16 07:25N 34°48' W 076°41'0 0.0
2018-Feb-16 06:58N 34°48' W 076°41'0 0.0
2018-Feb-16 06:28N 34°48' W 076°41'0 0.0
2018-Feb-16 05:58N 34°48' W 076°41'0 0.0
2018-Feb-16 05:28N 34°48' W 076°41'0 0.0
2018-Feb-16 04:52N 34°48' W 076°41'0 0.0
2018-Feb-16 04:28N 34°48' W 076°41'0 0.0
2018-Feb-16 03:58N 34°48' W 076°41'0 0.0
2018-Feb-16 03:28N 34°48' W 076°41'0 0.0
2018-Feb-16 02:58N 34°48' W 076°41'0 0.0
2018-Feb-16 02:28N 34°48' W 076°41'0 0.0
2018-Feb-16 01:58N 34°48' W 076°41'0 0.0
2018-Feb-16 01:28N 34°48' W 076°41'0 0.0
2018-Feb-16 00:58N 34°48' W 076°41'0 0.0
2018-Feb-16 00:28N 34°48' W 076°41'0 0.0
2018-Feb-15 23:58N 34°48' W 076°41'0 0.0
2018-Feb-15 23:19N 34°48' W 076°41'0 0.0
2018-Feb-15 22:58N 34°48' W 076°41'0 0.0
2018-Feb-15 22:28N 34°48' W 076°41'0 0.0
2018-Feb-15 21:58N 34°48' W 076°41'0 0.0
2018-Feb-15 21:28N 34°48' W 076°41'0 0.0
2018-Feb-15 20:58N 34°48' W 076°41'0 0.0
2018-Feb-15 20:28N 34°48' W 076°41'0 0.0
2018-Feb-15 19:58N 34°48' W 076°41'0 0.0
2018-Feb-15 19:28N 34°48' W 076°41'0 0.1
2018-Feb-15 18:58N 34°48' W 076°41'0 0.3
2018-Feb-15 18:30N 34°48' W 076°41'0 0.0
2018-Feb-15 18:00N 34°48' W 076°41'0 0.0
2018-Feb-15 17:30N 34°48' W 076°41'  
Track history (hours):
 
Tides and Currents Weather Stations Pressure Air Temp Water Temp Dewpoint Dewpoint Depression Visibility Wind Speed Wind Dir Waves Ship Positions

Deborah

Owner: Manson Construction Co., Seattle, WA. More information available from US FCC via Universal Licensing System and Coast Guard Vessel Documentation Center.

Last reported at 2018-Feb-21 17:30 UTC. Time now 2018-Feb-21 17:32 UTC.
Position N 34°40' W 076°40'.

Length 12 m.

Type: Pleasure craft. MMSI: 368000410.

Date/timePositionNaut miles runAvg speedWind from/ knotsBaromVisibWave heightAir tempDewpointWater temp
2018-Feb-21 17:30N 34°40' W 076°40'0 0.4
2018-Feb-21 16:59N 34°40' W 076°40'2 4.2
2018-Feb-21 16:30N 34°42' W 076°41'1 2.1
2018-Feb-21 15:59N 34°43' W 076°42'1 2.6
2018-Feb-21 15:30N 34°43' W 076°41'0 0.6
2018-Feb-21 14:59N 34°43' W 076°40'0 0.0
2018-Feb-21 14:29N 34°43' W 076°40'0 0.0
2018-Feb-21 13:59N 34°43' W 076°40'0 0.0
2018-Feb-21 13:29N 34°43' W 076°40'0 0.0
2018-Feb-21 12:59N 34°43' W 076°40'0 0.5
2018-Feb-21 12:30N 34°43' W 076°40'2 2.9
2018-Feb-21 11:59N 34°43' W 076°42'0 0.0
2018-Feb-21 11:30N 34°43' W 076°42'0 0.0
2018-Feb-21 11:00N 34°43' W 076°42'0 0.0
2018-Feb-21 10:30N 34°43' W 076°42'0 0.0
2018-Feb-21 10:00N 34°43' W 076°42'0 0.0
2018-Feb-21 09:30N 34°43' W 076°42'0 0.0
2018-Feb-21 09:00N 34°43' W 076°42'0 0.0
2018-Feb-21 08:30N 34°43' W 076°42'0 0.0
2018-Feb-21 08:00N 34°43' W 076°42'0 0.0
2018-Feb-21 07:30N 34°43' W 076°42'0 0.0
2018-Feb-21 07:00N 34°43' W 076°42'0 0.0
2018-Feb-21 06:30N 34°43' W 076°42'0 0.0
2018-Feb-21 06:00N 34°43' W 076°42'0 0.0
2018-Feb-21 05:30N 34°43' W 076°42'0 0.0
2018-Feb-21 05:00N 34°43' W 076°42'0 0.0
2018-Feb-21 04:30N 34°43' W 076°42'0 0.0
2018-Feb-21 04:00N 34°43' W 076°42'0 0.0
2018-Feb-21 03:30N 34°43' W 076°42'0 0.0
2018-Feb-21 02:57N 34°43' W 076°42'0 0.0
2018-Feb-21 02:30N 34°43' W 076°42'0 0.0
2018-Feb-21 02:00N 34°43' W 076°42'0 0.0
2018-Feb-21 01:30N 34°43' W 076°42'0 0.0
2018-Feb-21 01:00N 34°43' W 076°42'0 0.0
2018-Feb-21 00:30N 34°43' W 076°42'0 0.0
2018-Feb-21 00:00N 34°43' W 076°42'0 0.0
2018-Feb-20 23:30N 34°43' W 076°42'0 0.0
2018-Feb-20 23:00N 34°43' W 076°42'0 0.0
2018-Feb-20 22:30N 34°43' W 076°42'0 0.0
2018-Feb-20 22:00N 34°43' W 076°42'0 0.0
2018-Feb-20 21:30N 34°43' W 076°42'0 0.0
2018-Feb-20 21:00N 34°43' W 076°42'0 0.0
2018-Feb-20 20:30N 34°43' W 076°42'0 0.0
2018-Feb-20 19:57N 34°43' W 076°42'0 0.0
2018-Feb-20 19:30N 34°43' W 076°42'0 0.0
2018-Feb-20 19:00N 34°43' W 076°42'0 0.0
2018-Feb-20 18:30N 34°43' W 076°42'0 0.0
2018-Feb-20 18:00N 34°43' W 076°42'1 2.0
2018-Feb-20 17:30N 34°43' W 076°41'2 3.8
2018-Feb-20 17:00N 34°41' W 076°40'4 7.1
2018-Feb-20 16:30N 34°38' W 076°42'510.8
2018-Feb-20 16:00N 34°43' W 076°42'1 1.2
2018-Feb-20 15:30N 34°43' W 076°42'0 0.0
2018-Feb-20 14:55N 34°43' W 076°42'0 0.0
2018-Feb-20 14:28N 34°43' W 076°42'0 0.0
2018-Feb-20 13:58N 34°43' W 076°42'0 0.0
2018-Feb-20 13:28N 34°43' W 076°42'0 0.0
2018-Feb-20 12:58N 34°43' W 076°42'0 0.0
2018-Feb-20 12:28N 34°43' W 076°42'0 0.0
2018-Feb-20 11:58N 34°43' W 076°42'0 0.0
2018-Feb-20 11:28N 34°43' W 076°42'0 0.0
2018-Feb-20 10:58N 34°43' W 076°42'0 0.0
2018-Feb-20 10:28N 34°43' W 076°42'0 0.0
2018-Feb-20 09:55N 34°43' W 076°42'0 0.0
2018-Feb-20 09:28N 34°43' W 076°42'0 0.0
2018-Feb-20 08:58N 34°43' W 076°42'0 0.0
2018-Feb-20 08:28N 34°43' W 076°42'0 0.0
2018-Feb-20 07:58N 34°43' W 076°42'0 0.0
2018-Feb-20 07:28N 34°43' W 076°42'0 0.0
2018-Feb-20 06:58N 34°43' W 076°42'0 0.0
2018-Feb-20 06:28N 34°43' W 076°42'0 0.0
2018-Feb-20 05:58N 34°43' W 076°42'0 0.0
2018-Feb-20 05:28N 34°43' W 076°42'0 0.0
2018-Feb-20 04:58N 34°43' W 076°42'0 0.0
2018-Feb-20 04:28N 34°43' W 076°42'0 0.0
2018-Feb-20 03:58N 34°43' W 076°42'0 0.0
2018-Feb-20 03:28N 34°43' W 076°42'0 0.0
2018-Feb-20 02:58N 34°43' W 076°42'0 0.0
2018-Feb-20 02:28N 34°43' W 076°42'0 0.0
2018-Feb-20 01:58N 34°43' W 076°42'0 0.0
2018-Feb-20 01:28N 34°43' W 076°42'0 0.0
2018-Feb-20 00:58N 34°43' W 076°42'0 0.0
2018-Feb-20 00:28N 34°43' W 076°42'0 0.0
2018-Feb-19 23:58N 34°43' W 076°42'0 0.0
2018-Feb-19 23:28N 34°43' W 076°42'0 0.0
2018-Feb-19 22:58N 34°43' W 076°42'0 0.0
2018-Feb-19 22:28N 34°43' W 076°42'0 0.0
2018-Feb-19 21:58N 34°43' W 076°42'0 0.0
2018-Feb-19 21:19N 34°43' W 076°42'0 0.0
2018-Feb-19 20:58N 34°43' W 076°42'0 0.0
2018-Feb-19 20:28N 34°43' W 076°42'0 0.0
2018-Feb-19 19:58N 34°43' W 076°42'0 0.0
2018-Feb-19 19:28N 34°43' W 076°42'0 0.0
2018-Feb-19 18:58N 34°43' W 076°42'0 0.0
2018-Feb-19 18:28N 34°43' W 076°42'0 0.0
2018-Feb-19 17:58N 34°43' W 076°42'0 0.0
2018-Feb-19 17:28N 34°43' W 076°42'0 0.0
2018-Feb-19 16:58N 34°43' W 076°42'0 0.0
2018-Feb-19 16:28N 34°43' W 076°42'0 0.0
2018-Feb-19 15:58N 34°43' W 076°42'0 0.0
2018-Feb-19 15:28N 34°43' W 076°42'0 0.0
2018-Feb-19 14:58N 34°43' W 076°42'0 0.0
2018-Feb-19 14:28N 34°43' W 076°42'0 0.0
2018-Feb-19 13:58N 34°43' W 076°42'1 1.2
2018-Feb-19 13:30N 34°43' W 076°42'1 1.0
2018-Feb-19 12:58N 34°43' W 076°42'0 0.0
2018-Feb-19 12:28N 34°43' W 076°42'0 0.0
2018-Feb-19 11:58N 34°43' W 076°42'0 0.0
2018-Feb-19 11:28N 34°43' W 076°42'0 0.0
2018-Feb-19 10:58N 34°43' W 076°42'0 0.0
2018-Feb-19 10:28N 34°43' W 076°42'0 0.0
2018-Feb-19 09:58N 34°43' W 076°42'0 0.0
2018-Feb-19 09:28N 34°43' W 076°42'0 0.0
2018-Feb-19 08:58N 34°43' W 076°42'0 0.0
2018-Feb-19 08:22N 34°43' W 076°42'0 0.0
2018-Feb-19 07:58N 34°43' W 076°42'0 0.0
2018-Feb-19 07:28N 34°43' W 076°42'0 0.0
2018-Feb-19 06:58N 34°43' W 076°42'0 0.0
2018-Feb-19 06:28N 34°43' W 076°42'0 0.0
2018-Feb-19 05:58N 34°43' W 076°42'0 0.0
2018-Feb-19 05:28N 34°43' W 076°42'0 0.0
2018-Feb-19 04:58N 34°43' W 076°42'0 0.0
2018-Feb-19 04:28N 34°43' W 076°42'0 0.0
2018-Feb-19 03:58N 34°43' W 076°42'0 0.0
2018-Feb-19 03:28N 34°43' W 076°42'0 0.0
2018-Feb-19 02:58N 34°43' W 076°42'0 0.0
2018-Feb-19 02:28N 34°43' W 076°42'0 0.0
2018-Feb-19 01:58N 34°43' W 076°42'0 0.0
2018-Feb-19 01:28N 34°43' W 076°42'0 0.0
2018-Feb-19 00:58N 34°43' W 076°42'0 0.0
2018-Feb-19 00:28N 34°43' W 076°42'0 0.0
2018-Feb-18 23:58N 34°43' W 076°42'0 0.0
2018-Feb-18 23:28N 34°43' W 076°42'0 0.0
2018-Feb-18 22:58N 34°43' W 076°42'0 0.0
2018-Feb-18 22:28N 34°43' W 076°42'0 0.0
2018-Feb-18 21:58N 34°43' W 076°42'0 0.0
2018-Feb-18 21:28N 34°43' W 076°42'0 0.0
2018-Feb-18 20:58N 34°43' W 076°42'0 0.0
2018-Feb-18 20:28N 34°43' W 076°42'0 0.0
2018-Feb-18 19:55N 34°43' W 076°42'0 0.0
2018-Feb-18 19:28N 34°43' W 076°42'0 0.0
2018-Feb-18 18:58N 34°43' W 076°42'0 0.0
2018-Feb-18 18:28N 34°43' W 076°42'0 0.0
2018-Feb-18 17:58N 34°43' W 076°42'0 0.0
2018-Feb-18 17:28N 34°43' W 076°42'0 0.0
2018-Feb-18 16:58N 34°43' W 076°42'0 0.0
2018-Feb-18 16:28N 34°43' W 076°42'0 0.0
2018-Feb-18 15:58N 34°43' W 076°42'0 0.0
2018-Feb-18 15:28N 34°43' W 076°42'0 0.0
2018-Feb-18 14:58N 34°43' W 076°42'0 0.0
2018-Feb-18 14:28N 34°43' W 076°42'0 0.0
2018-Feb-18 13:58N 34°43' W 076°42'0 0.0
2018-Feb-18 13:28N 34°43' W 076°42'0 0.0
2018-Feb-18 12:58N 34°43' W 076°42'0 0.0
2018-Feb-18 12:28N 34°43' W 076°42'0 0.0
2018-Feb-18 11:58N 34°43' W 076°42'0 0.0
2018-Feb-18 11:28N 34°43' W 076°42'0 0.0
2018-Feb-18 10:58N 34°43' W 076°42'0 0.0
2018-Feb-18 10:28N 34°43' W 076°42'0 0.0
2018-Feb-18 09:58N 34°43' W 076°42'0 0.0
2018-Feb-18 09:28N 34°43' W 076°42'0 0.0
2018-Feb-18 08:58N 34°43' W 076°42'0 0.0
2018-Feb-18 08:28N 34°43' W 076°42'0 0.0
2018-Feb-18 07:58N 34°43' W 076°42'0 0.0
2018-Feb-18 07:28N 34°43' W 076°42'0 0.0
2018-Feb-18 06:58N 34°43' W 076°42'0 0.0
2018-Feb-18 06:28N 34°43' W 076°42'0 0.0
2018-Feb-18 05:58N 34°43' W 076°42'0 0.0
2018-Feb-18 05:28N 34°43' W 076°42'0 0.0
2018-Feb-18 04:58N 34°43' W 076°42'0 0.0
2018-Feb-18 04:28N 34°43' W 076°42'0 0.0
2018-Feb-18 03:58N 34°43' W 076°42'0 0.0
2018-Feb-18 03:28N 34°43' W 076°42'0 0.0
2018-Feb-18 02:58N 34°43' W 076°42'0 0.0
2018-Feb-18 02:28N 34°43' W 076°42'0 0.0
2018-Feb-18 01:58N 34°43' W 076°42'0 0.0
2018-Feb-18 01:28N 34°43' W 076°42'0 0.0
2018-Feb-18 00:58N 34°43' W 076°42'0 0.0
2018-Feb-18 00:28N 34°43' W 076°42'0 0.0
2018-Feb-17 23:58N 34°43' W 076°42'0 0.0
2018-Feb-17 23:28N 34°43' W 076°42'0 0.0
2018-Feb-17 22:58N 34°43' W 076°42'0 0.0
2018-Feb-17 22:28N 34°43' W 076°42'0 0.0
2018-Feb-17 21:58N 34°43' W 076°42'0 0.0
2018-Feb-17 21:28N 34°43' W 076°42'0 0.0
2018-Feb-17 20:58N 34°43' W 076°42'0 0.0
2018-Feb-17 20:28N 34°43' W 076°42'0 0.0
2018-Feb-17 19:58N 34°43' W 076°42'0 0.0
2018-Feb-17 19:28N 34°43' W 076°42'0 0.0
2018-Feb-17 18:58N 34°43' W 076°42'0 0.0
2018-Feb-17 18:28N 34°43' W 076°42'0 0.0
2018-Feb-17 17:58N 34°43' W 076°42'0 0.0
2018-Feb-17 17:28N 34°43' W 076°42'1 3.1
2018-Feb-17 17:00N 34°42' W 076°41'1 1.0
2018-Feb-17 16:30N 34°42' W 076°41'1 2.5
2018-Feb-17 16:00N 34°43' W 076°42'1 2.5
2018-Feb-17 15:30N 34°43' W 076°40'0 0.5
2018-Feb-17 15:00N 34°43' W 076°40'2 3.4
2018-Feb-17 14:30N 34°43' W 076°42'0 0.1
2018-Feb-17 14:00N 34°43' W 076°42'0 0.0
2018-Feb-17 13:30N 34°43' W 076°42'0 0.0
2018-Feb-17 13:00N 34°43' W 076°42'0 0.0
2018-Feb-17 12:30N 34°43' W 076°42'0 0.0
2018-Feb-17 12:00N 34°43' W 076°42'0 0.0
2018-Feb-17 11:30N 34°43' W 076°42'0 0.0
2018-Feb-17 11:00N 34°43' W 076°42'0 0.0
2018-Feb-17 10:30N 34°43' W 076°42'0 0.0
2018-Feb-17 10:00N 34°43' W 076°42'0 0.0
2018-Feb-17 09:30N 34°43' W 076°42'0 0.0
2018-Feb-17 09:00N 34°43' W 076°42'0 0.0
2018-Feb-17 08:30N 34°43' W 076°42'0 0.0
2018-Feb-17 08:00N 34°43' W 076°42'0 0.0
2018-Feb-17 07:30N 34°43' W 076°42'0 0.0
2018-Feb-17 07:00N 34°43' W 076°42'0 0.0
2018-Feb-17 06:30N 34°43' W 076°42'0 0.0
2018-Feb-17 06:00N 34°43' W 076°42'0 0.0
2018-Feb-17 05:30N 34°43' W 076°42'0 0.0
2018-Feb-17 05:00N 34°43' W 076°42'0 0.0
2018-Feb-17 04:30N 34°43' W 076°42'0 0.0
2018-Feb-17 04:00N 34°43' W 076°42'0 0.0
2018-Feb-17 03:30N 34°43' W 076°42'0 0.0
2018-Feb-17 03:00N 34°43' W 076°42'0 0.0
2018-Feb-17 02:30N 34°43' W 076°42'0 0.0
2018-Feb-17 02:00N 34°43' W 076°42'0 0.0
2018-Feb-17 01:30N 34°43' W 076°42'0 0.0
2018-Feb-17 01:00N 34°43' W 076°42'0 0.0
2018-Feb-17 00:30N 34°43' W 076°42'0 0.0
2018-Feb-17 00:00N 34°43' W 076°42'0 0.0
2018-Feb-16 23:30N 34°43' W 076°42'0 0.0
2018-Feb-16 23:00N 34°43' W 076°42'0 0.0
2018-Feb-16 22:30N 34°43' W 076°42'0 0.0
2018-Feb-16 22:00N 34°43' W 076°42'0 0.0
2018-Feb-16 21:30N 34°43' W 076°42'0 0.0
2018-Feb-16 21:00N 34°43' W 076°42'0 0.0
2018-Feb-16 20:30N 34°43' W 076°42'0 0.0
2018-Feb-16 20:00N 34°43' W 076°42'0 0.0
2018-Feb-16 19:30N 34°43' W 076°42'0 0.0
2018-Feb-16 19:00N 34°43' W 076°42'0 0.0
2018-Feb-16 18:30N 34°43' W 076°42'0 0.0
2018-Feb-16 18:00N 34°43' W 076°42'0 0.0
2018-Feb-16 17:30N 34°43' W 076°42'0 0.0
2018-Feb-16 17:00N 34°43' W 076°42'0 0.0
2018-Feb-16 16:24N 34°43' W 076°42'0 0.0
2018-Feb-16 16:00N 34°43' W 076°42'0 0.0
2018-Feb-16 15:30N 34°43' W 076°42'0 0.0
2018-Feb-16 15:00N 34°43' W 076°42'0 0.0
2018-Feb-16 14:30N 34°43' W 076°42'0 0.0
2018-Feb-16 14:00N 34°43' W 076°42'0 0.0
2018-Feb-16 13:30N 34°43' W 076°42'1 1.6
2018-Feb-16 13:00N 34°44' W 076°42'5 8.8
2018-Feb-16 12:28N 34°48' W 076°41'0 0.0
2018-Feb-16 11:58N 34°48' W 076°41'0 0.0
2018-Feb-16 11:28N 34°48' W 076°41'0 0.0
2018-Feb-16 10:58N 34°48' W 076°41'0 0.0
2018-Feb-16 10:28N 34°48' W 076°41'0 0.0
2018-Feb-16 09:58N 34°48' W 076°41'0 0.0
2018-Feb-16 09:28N 34°48' W 076°41'0 0.0
2018-Feb-16 08:58N 34°48' W 076°41'0 0.0
2018-Feb-16 08:28N 34°48' W 076°41'0 0.0
2018-Feb-16 07:58N 34°48' W 076°41'0 0.0
2018-Feb-16 07:25N 34°48' W 076°41'0 0.0
2018-Feb-16 06:58N 34°48' W 076°41'0 0.0
2018-Feb-16 06:28N 34°48' W 076°41'0 0.0
2018-Feb-16 05:58N 34°48' W 076°41'0 0.0
2018-Feb-16 05:28N 34°48' W 076°41'0 0.0
2018-Feb-16 04:52N 34°48' W 076°41'0 0.0
2018-Feb-16 04:28N 34°48' W 076°41'0 0.0
2018-Feb-16 03:58N 34°48' W 076°41'0 0.0
2018-Feb-16 03:28N 34°48' W 076°41'0 0.0
2018-Feb-16 02:58N 34°48' W 076°41'0 0.0
2018-Feb-16 02:28N 34°48' W 076°41'0 0.0
2018-Feb-16 01:58N 34°48' W 076°41'0 0.0
2018-Feb-16 01:28N 34°48' W 076°41'0 0.0
2018-Feb-16 00:58N 34°48' W 076°41'0 0.0
2018-Feb-16 00:28N 34°48' W 076°41'0 0.0
2018-Feb-15 23:58N 34°48' W 076°41'0 0.0
2018-Feb-15 23:19N 34°48' W 076°41'0 0.0
2018-Feb-15 22:58N 34°48' W 076°41'0 0.0
2018-Feb-15 22:28N 34°48' W 076°41'0 0.0
2018-Feb-15 21:58N 34°48' W 076°41'0 0.0
2018-Feb-15 21:28N 34°48' W 076°41'0 0.0
2018-Feb-15 20:58N 34°48' W 076°41'0 0.0
2018-Feb-15 20:28N 34°48' W 076°41'0 0.0
2018-Feb-15 19:58N 34°48' W 076°41'0 0.0
2018-Feb-15 19:28N 34°48' W 076°41'0 0.1
2018-Feb-15 18:58N 34°48' W 076°41'0 0.3
2018-Feb-15 18:30N 34°48' W 076°41'0 0.0
2018-Feb-15 18:00N 34°48' W 076°41'0 0.0
2018-Feb-15 17:30N 34°48' W 076°41'  

Dump ship's entire track history